sensor_id;sensor_type;location;lat;lon;timestamp;P1;durP1;ratioP1;P2;durP2;ratioP2
2944;SDS011;1482;51.398;7.128;2024-02-04T00:01:18;13.50;;;9.97;;
2944;SDS011;1482;51.398;7.128;2024-02-04T00:03:44;9.60;;;8.67;;
2944;SDS011;1482;51.398;7.128;2024-02-04T00:06:09;10.37;;;9.20;;
2944;SDS011;1482;51.398;7.128;2024-02-04T00:08:35;13.10;;;8.80;;
2944;SDS011;1482;51.398;7.128;2024-02-04T00:11:01;10.03;;;9.07;;
2944;SDS011;1482;51.398;7.128;2024-02-04T00:13:29;9.00;;;8.10;;
2944;SDS011;1482;51.398;7.128;2024-02-04T00:15:55;8.93;;;8.13;;
2944;SDS011;1482;51.398;7.128;2024-02-04T00:18:23;9.50;;;8.50;;
2944;SDS011;1482;51.398;7.128;2024-02-04T00:20:49;11.90;;;9.13;;
2944;SDS011;1482;51.398;7.128;2024-02-04T00:23:14;9.53;;;8.60;;
2944;SDS011;1482;51.398;7.128;2024-02-04T00:25:40;9.70;;;8.70;;
2944;SDS011;1482;51.398;7.128;2024-02-04T00:28:06;8.90;;;8.10;;
2944;SDS011;1482;51.398;7.128;2024-02-04T00:30:32;9.00;;;7.23;;
2944;SDS011;1482;51.398;7.128;2024-02-04T00:32:57;8.87;;;7.97;;
2944;SDS011;1482;51.398;7.128;2024-02-04T00:35:27;8.17;;;6.77;;
2944;SDS011;1482;51.398;7.128;2024-02-04T00:37:53;7.80;;;6.90;;
2944;SDS011;1482;51.398;7.128;2024-02-04T00:40:19;6.40;;;5.80;;
2944;SDS011;1482;51.398;7.128;2024-02-04T00:42:44;6.50;;;5.90;;
2944;SDS011;1482;51.398;7.128;2024-02-04T00:45:10;5.53;;;5.03;;
2944;SDS011;1482;51.398;7.128;2024-02-04T00:47:36;4.70;;;4.30;;
2944;SDS011;1482;51.398;7.128;2024-02-04T00:50:01;5.23;;;4.83;;
2944;SDS011;1482;51.398;7.128;2024-02-04T00:52:27;5.93;;;4.50;;
2944;SDS011;1482;51.398;7.128;2024-02-04T00:54:52;5.20;;;4.07;;
2944;SDS011;1482;51.398;7.128;2024-02-04T00:57:18;3.50;;;3.20;;
2944;SDS011;1482;51.398;7.128;2024-02-04T00:59:43;4.03;;;3.30;;
2944;SDS011;1482;51.398;7.128;2024-02-04T01:02:09;2.87;;;2.67;;
2944;SDS011;1482;51.398;7.128;2024-02-04T01:04:34;4.33;;;4.00;;
2944;SDS011;1482;51.398;7.128;2024-02-04T01:07:00;2.90;;;2.60;;
2944;SDS011;1482;51.398;7.128;2024-02-04T01:09:25;4.17;;;2.60;;
2944;SDS011;1482;51.398;7.128;2024-02-04T01:11:52;2.33;;;2.13;;
2944;SDS011;1482;51.398;7.128;2024-02-04T01:14:18;3.30;;;2.40;;
2944;SDS011;1482;51.398;7.128;2024-02-04T01:16:43;3.70;;;3.10;;
2944;SDS011;1482;51.398;7.128;2024-02-04T01:19:09;4.00;;;3.00;;
2944;SDS011;1482;51.398;7.128;2024-02-04T01:21:34;3.30;;;2.80;;
2944;SDS011;1482;51.398;7.128;2024-02-04T01:24:00;3.50;;;3.20;;
2944;SDS011;1482;51.398;7.128;2024-02-04T01:26:25;2.90;;;2.70;;
2944;SDS011;1482;51.398;7.128;2024-02-04T01:28:51;3.93;;;3.57;;
2944;SDS011;1482;51.398;7.128;2024-02-04T01:31:16;6.70;;;3.10;;
2944;SDS011;1482;51.398;7.128;2024-02-04T01:33:42;4.73;;;3.10;;
2944;SDS011;1482;51.398;7.128;2024-02-04T01:36:07;3.87;;;2.73;;
2944;SDS011;1482;51.398;7.128;2024-02-04T01:38:33;2.93;;;2.63;;
2944;SDS011;1482;51.398;7.128;2024-02-04T01:40:58;3.87;;;3.57;;
2944;SDS011;1482;51.398;7.128;2024-02-04T01:43:24;3.73;;;3.43;;
2944;SDS011;1482;51.398;7.128;2024-02-04T01:45:50;4.27;;;3.90;;
2944;SDS011;1482;51.398;7.128;2024-02-04T01:48:18;4.40;;;4.00;;
2944;SDS011;1482;51.398;7.128;2024-02-04T01:50:45;3.70;;;3.40;;
2944;SDS011;1482;51.398;7.128;2024-02-04T01:53:13;3.80;;;3.27;;
2944;SDS011;1482;51.398;7.128;2024-02-04T01:55:40;4.00;;;3.60;;
2944;SDS011;1482;51.398;7.128;2024-02-04T01:58:06;4.57;;;4.07;;
2944;SDS011;1482;51.398;7.128;2024-02-04T02:00:31;4.00;;;3.60;;
2944;SDS011;1482;51.398;7.128;2024-02-04T02:02:58;4.63;;;4.23;;
2944;SDS011;1482;51.398;7.128;2024-02-04T02:05:25;4.90;;;4.40;;
2944;SDS011;1482;51.398;7.128;2024-02-04T02:07:51;5.07;;;4.60;;
2944;SDS011;1482;51.398;7.128;2024-02-04T02:10:17;5.40;;;4.60;;
2944;SDS011;1482;51.398;7.128;2024-02-04T02:12:47;6.33;;;5.70;;
2944;SDS011;1482;51.398;7.128;2024-02-04T02:15:23;5.67;;;5.07;;
2944;SDS011;1482;51.398;7.128;2024-02-04T02:17:58;5.73;;;5.20;;
2944;SDS011;1482;51.398;7.128;2024-02-04T02:20:32;8.20;;;6.40;;
2944;SDS011;1482;51.398;7.128;2024-02-04T02:23:28;8.63;;;7.13;;
2944;SDS011;1482;51.398;7.128;2024-02-04T02:25:56;8.50;;;6.90;;
2944;SDS011;1482;51.398;7.128;2024-02-04T02:28:22;8.17;;;7.30;;
2944;SDS011;1482;51.398;7.128;2024-02-04T02:30:48;8.87;;;7.80;;
2944;SDS011;1482;51.398;7.128;2024-02-04T02:33:13;7.80;;;6.60;;
2944;SDS011;1482;51.398;7.128;2024-02-04T02:35:39;8.60;;;7.53;;
2944;SDS011;1482;51.398;7.128;2024-02-04T02:40:42;8.90;;;6.80;;
2944;SDS011;1482;51.398;7.128;2024-02-04T02:43:14;10.30;;;8.73;;
2944;SDS011;1482;51.398;7.128;2024-02-04T02:45:43;9.63;;;8.20;;
2944;SDS011;1482;51.398;7.128;2024-02-04T02:48:10;9.50;;;7.90;;
2944;SDS011;1482;51.398;7.128;2024-02-04T02:50:37;8.60;;;7.53;;
2944;SDS011;1482;51.398;7.128;2024-02-04T02:53:03;10.20;;;8.50;;
2944;SDS011;1482;51.398;7.128;2024-02-04T02:55:29;11.87;;;10.20;;
2944;SDS011;1482;51.398;7.128;2024-02-04T02:57:54;17.70;;;11.37;;
2944;SDS011;1482;51.398;7.128;2024-02-04T03:00:20;17.27;;;12.53;;
2944;SDS011;1482;51.398;7.128;2024-02-04T03:02:46;18.20;;;13.37;;
2944;SDS011;1482;51.398;7.128;2024-02-04T03:05:11;19.67;;;13.60;;
2944;SDS011;1482;51.398;7.128;2024-02-04T03:07:37;21.23;;;15.77;;
2944;SDS011;1482;51.398;7.128;2024-02-04T03:10:03;20.53;;;17.27;;
2944;SDS011;1482;51.398;7.128;2024-02-04T03:12:29;27.70;;;19.57;;
2944;SDS011;1482;51.398;7.128;2024-02-04T03:14:54;26.07;;;19.43;;
2944;SDS011;1482;51.398;7.128;2024-02-04T03:17:20;23.37;;;19.40;;
2944;SDS011;1482;51.398;7.128;2024-02-04T03:19:49;22.63;;;18.60;;
2944;SDS011;1482;51.398;7.128;2024-02-04T03:22:17;27.63;;;20.10;;
2944;SDS011;1482;51.398;7.128;2024-02-04T03:24:42;27.47;;;19.67;;
2944;SDS011;1482;51.398;7.128;2024-02-04T03:27:10;24.53;;;19.40;;
2944;SDS011;1482;51.398;7.128;2024-02-04T03:29:36;24.10;;;19.20;;
2944;SDS011;1482;51.398;7.128;2024-02-04T03:32:02;26.90;;;19.63;;
2944;SDS011;1482;51.398;7.128;2024-02-04T03:34:28;22.77;;;19.57;;
2944;SDS011;1482;51.398;7.128;2024-02-04T03:36:53;25.53;;;20.53;;
2944;SDS011;1482;51.398;7.128;2024-02-04T03:39:19;26.80;;;20.20;;
2944;SDS011;1482;51.398;7.128;2024-02-04T03:41:45;30.37;;;20.70;;
2944;SDS011;1482;51.398;7.128;2024-02-04T03:44:10;30.23;;;23.40;;
2944;SDS011;1482;51.398;7.128;2024-02-04T03:46:39;28.23;;;20.67;;
2944;SDS011;1482;51.398;7.128;2024-02-04T03:49:06;29.80;;;21.20;;
2944;SDS011;1482;51.398;7.128;2024-02-04T03:51:32;30.90;;;22.30;;
2944;SDS011;1482;51.398;7.128;2024-02-04T03:53:58;29.67;;;22.37;;
2944;SDS011;1482;51.398;7.128;2024-02-04T03:56:23;27.00;;;19.33;;
2944;SDS011;1482;51.398;7.128;2024-02-04T03:58:49;26.23;;;20.67;;
2944;SDS011;1482;51.398;7.128;2024-02-04T04:01:15;26.67;;;20.13;;
2944;SDS011;1482;51.398;7.128;2024-02-04T04:03:41;25.37;;;17.93;;
2944;SDS011;1482;51.398;7.128;2024-02-04T04:06:08;26.17;;;16.77;;
2944;SDS011;1482;51.398;7.128;2024-02-04T04:08:36;24.83;;;14.17;;
2944;SDS011;1482;51.398;7.128;2024-02-04T04:11:02;19.33;;;14.80;;
2944;SDS011;1482;51.398;7.128;2024-02-04T04:13:28;18.37;;;13.93;;
2944;SDS011;1482;51.398;7.128;2024-02-04T04:15:54;15.60;;;12.17;;
2944;SDS011;1482;51.398;7.128;2024-02-04T04:18:19;17.33;;;13.53;;
2944;SDS011;1482;51.398;7.128;2024-02-04T04:20:45;15.87;;;12.17;;
2944;SDS011;1482;51.398;7.128;2024-02-04T04:23:11;10.73;;;8.77;;
2944;SDS011;1482;51.398;7.128;2024-02-04T04:25:37;10.80;;;8.90;;
2944;SDS011;1482;51.398;7.128;2024-02-04T04:28:03;11.60;;;9.07;;
2944;SDS011;1482;51.398;7.128;2024-02-04T04:30:29;12.50;;;9.30;;
2944;SDS011;1482;51.398;7.128;2024-02-04T04:32:55;9.27;;;7.70;;
2944;SDS011;1482;51.398;7.128;2024-02-04T04:35:21;15.97;;;10.67;;
2944;SDS011;1482;51.398;7.128;2024-02-04T04:37:46;18.07;;;13.03;;
2944;SDS011;1482;51.398;7.128;2024-02-04T04:40:12;19.23;;;13.30;;
2944;SDS011;1482;51.398;7.128;2024-02-04T04:42:38;19.40;;;14.00;;
2944;SDS011;1482;51.398;7.128;2024-02-04T04:45:03;23.30;;;15.10;;
2944;SDS011;1482;51.398;7.128;2024-02-04T04:47:29;22.10;;;16.80;;
2944;SDS011;1482;51.398;7.128;2024-02-04T04:49:55;26.33;;;17.60;;
2944;SDS011;1482;51.398;7.128;2024-02-04T04:52:20;22.70;;;16.97;;
2944;SDS011;1482;51.398;7.128;2024-02-04T04:54:46;24.20;;;17.90;;
2944;SDS011;1482;51.398;7.128;2024-02-04T04:57:11;28.63;;;20.07;;
2944;SDS011;1482;51.398;7.128;2024-02-04T04:59:37;27.63;;;20.00;;
2944;SDS011;1482;51.398;7.128;2024-02-04T05:02:03;26.63;;;19.77;;
2944;SDS011;1482;51.398;7.128;2024-02-04T05:04:29;29.43;;;18.97;;
2944;SDS011;1482;51.398;7.128;2024-02-04T05:06:55;28.07;;;18.90;;
2944;SDS011;1482;51.398;7.128;2024-02-04T05:09:20;28.53;;;19.83;;
2944;SDS011;1482;51.398;7.128;2024-02-04T05:11:46;26.30;;;18.00;;
2944;SDS011;1482;51.398;7.128;2024-02-04T05:14:11;25.37;;;18.83;;
2944;SDS011;1482;51.398;7.128;2024-02-04T05:16:37;25.90;;;20.20;;
2944;SDS011;1482;51.398;7.128;2024-02-04T05:19:02;24.63;;;18.30;;
2944;SDS011;1482;51.398;7.128;2024-02-04T05:21:28;23.43;;;18.73;;
2944;SDS011;1482;51.398;7.128;2024-02-04T05:23:54;27.27;;;18.80;;
2944;SDS011;1482;51.398;7.128;2024-02-04T05:26:19;29.97;;;18.07;;
2944;SDS011;1482;51.398;7.128;2024-02-04T05:28:45;24.23;;;19.37;;
2944;SDS011;1482;51.398;7.128;2024-02-04T05:31:11;25.70;;;19.70;;
2944;SDS011;1482;51.398;7.128;2024-02-04T05:33:36;26.00;;;20.40;;
2944;SDS011;1482;51.398;7.128;2024-02-04T05:36:02;27.83;;;20.00;;
2944;SDS011;1482;51.398;7.128;2024-02-04T05:38:28;32.93;;;19.87;;
2944;SDS011;1482;51.398;7.128;2024-02-04T05:40:55;28.90;;;20.93;;
2944;SDS011;1482;51.398;7.128;2024-02-04T05:43:21;27.20;;;19.97;;
2944;SDS011;1482;51.398;7.128;2024-02-04T05:45:47;30.10;;;20.10;;
2944;SDS011;1482;51.398;7.128;2024-02-04T05:48:12;26.37;;;20.23;;
2944;SDS011;1482;51.398;7.128;2024-02-04T05:50:38;31.87;;;21.00;;
2944;SDS011;1482;51.398;7.128;2024-02-04T05:53:04;31.00;;;19.93;;
2944;SDS011;1482;51.398;7.128;2024-02-04T05:55:30;27.13;;;20.40;;
2944;SDS011;1482;51.398;7.128;2024-02-04T05:57:56;26.33;;;20.27;;
2944;SDS011;1482;51.398;7.128;2024-02-04T06:00:21;31.13;;;19.83;;
2944;SDS011;1482;51.398;7.128;2024-02-04T06:02:48;30.67;;;19.67;;
2944;SDS011;1482;51.398;7.128;2024-02-04T06:05:14;25.60;;;18.60;;
2944;SDS011;1482;51.398;7.128;2024-02-04T06:07:39;20.83;;;16.23;;
2944;SDS011;1482;51.398;7.128;2024-02-04T06:10:10;30.67;;;19.47;;
2944;SDS011;1482;51.398;7.128;2024-02-04T06:12:36;25.70;;;19.83;;
2944;SDS011;1482;51.398;7.128;2024-02-04T06:15:02;24.20;;;18.23;;
2944;SDS011;1482;51.398;7.128;2024-02-04T06:17:29;28.23;;;19.47;;
2944;SDS011;1482;51.398;7.128;2024-02-04T06:19:54;31.20;;;20.10;;
2944;SDS011;1482;51.398;7.128;2024-02-04T06:22:21;29.23;;;18.73;;
2944;SDS011;1482;51.398;7.128;2024-02-04T06:24:47;30.07;;;21.13;;
2944;SDS011;1482;51.398;7.128;2024-02-04T06:27:13;29.90;;;20.77;;
2944;SDS011;1482;51.398;7.128;2024-02-04T06:29:39;31.37;;;20.20;;
2944;SDS011;1482;51.398;7.128;2024-02-04T06:32:04;26.30;;;20.00;;
2944;SDS011;1482;51.398;7.128;2024-02-04T06:34:30;35.30;;;23.13;;
2944;SDS011;1482;51.398;7.128;2024-02-04T06:36:56;34.53;;;21.37;;
2944;SDS011;1482;51.398;7.128;2024-02-04T06:39:21;32.83;;;21.53;;
2944;SDS011;1482;51.398;7.128;2024-02-04T06:41:47;31.00;;;22.63;;
2944;SDS011;1482;51.398;7.128;2024-02-04T06:44:12;27.87;;;19.57;;
2944;SDS011;1482;51.398;7.128;2024-02-04T06:46:38;26.60;;;19.60;;
2944;SDS011;1482;51.398;7.128;2024-02-04T06:49:03;26.17;;;17.43;;
2944;SDS011;1482;51.398;7.128;2024-02-04T06:51:29;25.33;;;17.20;;
2944;SDS011;1482;51.398;7.128;2024-02-04T06:53:54;22.00;;;15.87;;
2944;SDS011;1482;51.398;7.128;2024-02-04T06:56:20;24.30;;;15.73;;
2944;SDS011;1482;51.398;7.128;2024-02-04T06:58:46;21.07;;;14.60;;
2944;SDS011;1482;51.398;7.128;2024-02-04T07:01:11;22.37;;;14.07;;
2944;SDS011;1482;51.398;7.128;2024-02-04T07:03:37;24.73;;;14.37;;
2944;SDS011;1482;51.398;7.128;2024-02-04T07:06:03;21.17;;;14.13;;
2944;SDS011;1482;51.398;7.128;2024-02-04T07:08:29;22.00;;;14.13;;
2944;SDS011;1482;51.398;7.128;2024-02-04T07:10:54;23.43;;;13.50;;
2944;SDS011;1482;51.398;7.128;2024-02-04T07:13:19;21.83;;;14.37;;
2944;SDS011;1482;51.398;7.128;2024-02-04T07:15:45;19.40;;;12.93;;
2944;SDS011;1482;51.398;7.128;2024-02-04T07:18:11;22.60;;;14.03;;
2944;SDS011;1482;51.398;7.128;2024-02-04T07:20:36;17.13;;;13.17;;
2944;SDS011;1482;51.398;7.128;2024-02-04T07:23:02;21.47;;;12.93;;
2944;SDS011;1482;51.398;7.128;2024-02-04T07:25:28;14.87;;;11.20;;
2944;SDS011;1482;51.398;7.128;2024-02-04T07:27:54;16.30;;;11.60;;
2944;SDS011;1482;51.398;7.128;2024-02-04T07:30:19;15.07;;;10.00;;
2944;SDS011;1482;51.398;7.128;2024-02-04T07:32:45;18.00;;;10.90;;
2944;SDS011;1482;51.398;7.128;2024-02-04T07:35:11;19.43;;;11.10;;
2944;SDS011;1482;51.398;7.128;2024-02-04T07:37:37;14.17;;;11.07;;
2944;SDS011;1482;51.398;7.128;2024-02-04T07:40:03;20.33;;;11.13;;
2944;SDS011;1482;51.398;7.128;2024-02-04T07:42:31;13.80;;;10.87;;
2944;SDS011;1482;51.398;7.128;2024-02-04T07:44:56;24.37;;;11.90;;
2944;SDS011;1482;51.398;7.128;2024-02-04T07:47:22;14.10;;;10.40;;
2944;SDS011;1482;51.398;7.128;2024-02-04T07:49:48;13.37;;;10.40;;
2944;SDS011;1482;51.398;7.128;2024-02-04T07:52:14;12.20;;;10.90;;
2944;SDS011;1482;51.398;7.128;2024-02-04T07:54:39;12.37;;;10.10;;
2944;SDS011;1482;51.398;7.128;2024-02-04T07:57:05;18.10;;;10.30;;
2944;SDS011;1482;51.398;7.128;2024-02-04T07:59:30;11.73;;;9.53;;
2944;SDS011;1482;51.398;7.128;2024-02-04T08:01:56;10.37;;;8.00;;
2944;SDS011;1482;51.398;7.128;2024-02-04T08:04:21;11.13;;;7.80;;
2944;SDS011;1482;51.398;7.128;2024-02-04T08:06:47;12.70;;;10.80;;
2944;SDS011;1482;51.398;7.128;2024-02-04T08:09:13;10.93;;;7.77;;
2944;SDS011;1482;51.398;7.128;2024-02-04T08:11:38;11.37;;;7.80;;
2944;SDS011;1482;51.398;7.128;2024-02-04T08:14:04;11.20;;;8.30;;
2944;SDS011;1482;51.398;7.128;2024-02-04T08:16:30;9.73;;;7.87;;
2944;SDS011;1482;51.398;7.128;2024-02-04T08:18:55;11.10;;;7.43;;
2944;SDS011;1482;51.398;7.128;2024-02-04T08:21:21;8.47;;;6.73;;
2944;SDS011;1482;51.398;7.128;2024-02-04T08:23:46;7.63;;;6.93;;
2944;SDS011;1482;51.398;7.128;2024-02-04T08:26:12;9.13;;;8.17;;
2944;SDS011;1482;51.398;7.128;2024-02-04T08:28:38;9.53;;;7.80;;
2944;SDS011;1482;51.398;7.128;2024-02-04T08:31:03;9.47;;;6.43;;
2944;SDS011;1482;51.398;7.128;2024-02-04T08:33:29;6.53;;;5.90;;
2944;SDS011;1482;51.398;7.128;2024-02-04T08:35:54;10.90;;;6.00;;
2944;SDS011;1482;51.398;7.128;2024-02-04T08:38:20;7.43;;;6.13;;
2944;SDS011;1482;51.398;7.128;2024-02-04T08:40:45;8.17;;;6.30;;
2944;SDS011;1482;51.398;7.128;2024-02-04T08:43:11;11.10;;;8.60;;
2944;SDS011;1482;51.398;7.128;2024-02-04T08:45:36;11.80;;;8.77;;
2944;SDS011;1482;51.398;7.128;2024-02-04T08:48:02;15.50;;;8.60;;
2944;SDS011;1482;51.398;7.128;2024-02-04T08:50:28;12.47;;;8.13;;
2944;SDS011;1482;51.398;7.128;2024-02-04T08:52:54;8.90;;;7.00;;
2944;SDS011;1482;51.398;7.128;2024-02-04T08:55:20;9.43;;;7.47;;
2944;SDS011;1482;51.398;7.128;2024-02-04T08:57:45;13.90;;;8.67;;
2944;SDS011;1482;51.398;7.128;2024-02-04T09:00:13;10.90;;;8.80;;
2944;SDS011;1482;51.398;7.128;2024-02-04T09:02:39;10.30;;;8.73;;
2944;SDS011;1482;51.398;7.128;2024-02-04T09:05:05;15.60;;;8.70;;
2944;SDS011;1482;51.398;7.128;2024-02-04T09:07:31;12.10;;;9.50;;
2944;SDS011;1482;51.398;7.128;2024-02-04T09:09:56;12.10;;;9.30;;
2944;SDS011;1482;51.398;7.128;2024-02-04T09:12:22;9.27;;;7.80;;
2944;SDS011;1482;51.398;7.128;2024-02-04T09:14:47;12.00;;;8.83;;
2944;SDS011;1482;51.398;7.128;2024-02-04T09:17:13;14.43;;;10.00;;
2944;SDS011;1482;51.398;7.128;2024-02-04T09:19:39;30.87;;;11.63;;
2944;SDS011;1482;51.398;7.128;2024-02-04T09:22:04;15.17;;;11.30;;
2944;SDS011;1482;51.398;7.128;2024-02-04T09:24:30;16.00;;;11.73;;
2944;SDS011;1482;51.398;7.128;2024-02-04T09:26:56;13.80;;;9.63;;
2944;SDS011;1482;51.398;7.128;2024-02-04T09:29:21;15.10;;;9.90;;
2944;SDS011;1482;51.398;7.128;2024-02-04T09:31:47;13.27;;;10.10;;
2944;SDS011;1482;51.398;7.128;2024-02-04T09:34:14;14.47;;;9.73;;
2944;SDS011;1482;51.398;7.128;2024-02-04T09:36:40;12.40;;;9.60;;
2944;SDS011;1482;51.398;7.128;2024-02-04T09:39:06;14.47;;;10.73;;
2944;SDS011;1482;51.398;7.128;2024-02-04T09:41:32;14.00;;;10.10;;
2944;SDS011;1482;51.398;7.128;2024-02-04T09:43:58;14.30;;;9.80;;
2944;SDS011;1482;51.398;7.128;2024-02-04T09:46:25;17.40;;;10.87;;
2944;SDS011;1482;51.398;7.128;2024-02-04T09:48:52;14.70;;;11.43;;
2944;SDS011;1482;51.398;7.128;2024-02-04T09:51:20;11.60;;;9.87;;
2944;SDS011;1482;51.398;7.128;2024-02-04T09:53:45;11.73;;;9.20;;
2944;SDS011;1482;51.398;7.128;2024-02-04T09:56:16;12.93;;;8.30;;
2944;SDS011;1482;51.398;7.128;2024-02-04T09:58:42;10.50;;;6.63;;
2944;SDS011;1482;51.398;7.128;2024-02-04T10:01:08;9.27;;;7.10;;
2944;SDS011;1482;51.398;7.128;2024-02-04T10:03:36;7.43;;;6.20;;
2944;SDS011;1482;51.398;7.128;2024-02-04T10:06:02;8.90;;;7.50;;
2944;SDS011;1482;51.398;7.128;2024-02-04T10:08:27;10.23;;;8.50;;
2944;SDS011;1482;51.398;7.128;2024-02-04T10:10:53;11.60;;;6.50;;
2944;SDS011;1482;51.398;7.128;2024-02-04T10:13:19;9.00;;;7.30;;
2944;SDS011;1482;51.398;7.128;2024-02-04T10:15:46;10.40;;;7.00;;
2944;SDS011;1482;51.398;7.128;2024-02-04T10:18:13;8.23;;;7.27;;
2944;SDS011;1482;51.398;7.128;2024-02-04T10:20:38;9.93;;;8.37;;
2944;SDS011;1482;51.398;7.128;2024-02-04T10:23:04;7.30;;;6.43;;
2944;SDS011;1482;51.398;7.128;2024-02-04T10:25:30;8.17;;;6.23;;
2944;SDS011;1482;51.398;7.128;2024-02-04T10:27:55;8.93;;;7.37;;
2944;SDS011;1482;51.398;7.128;2024-02-04T10:30:23;8.47;;;6.80;;
2944;SDS011;1482;51.398;7.128;2024-02-04T10:32:51;9.13;;;6.77;;
2944;SDS011;1482;51.398;7.128;2024-02-04T10:35:20;9.53;;;8.53;;
2944;SDS011;1482;51.398;7.128;2024-02-04T10:37:47;9.27;;;8.30;;
2944;SDS011;1482;51.398;7.128;2024-02-04T10:40:16;9.67;;;7.73;;
2944;SDS011;1482;51.398;7.128;2024-02-04T10:42:42;11.53;;;10.00;;
2944;SDS011;1482;51.398;7.128;2024-02-04T10:45:09;11.03;;;9.57;;
2944;SDS011;1482;51.398;7.128;2024-02-04T10:47:39;10.53;;;8.20;;
2944;SDS011;1482;51.398;7.128;2024-02-04T10:50:05;11.00;;;9.13;;
2944;SDS011;1482;51.398;7.128;2024-02-04T10:52:34;12.63;;;9.40;;
2944;SDS011;1482;51.398;7.128;2024-02-04T10:55:03;9.20;;;8.17;;
2944;SDS011;1482;51.398;7.128;2024-02-04T10:57:40;12.30;;;8.47;;
2944;SDS011;1482;51.398;7.128;2024-02-04T11:00:06;15.90;;;10.60;;
2944;SDS011;1482;51.398;7.128;2024-02-04T11:02:36;15.30;;;10.40;;
2944;SDS011;1482;51.398;7.128;2024-02-04T11:05:04;12.93;;;8.60;;
2944;SDS011;1482;51.398;7.128;2024-02-04T11:07:31;16.40;;;9.60;;
2944;SDS011;1482;51.398;7.128;2024-02-04T11:09:58;9.50;;;8.23;;
2944;SDS011;1482;51.398;7.128;2024-02-04T11:12:25;10.20;;;9.13;;
2944;SDS011;1482;51.398;7.128;2024-02-04T11:14:53;9.07;;;8.07;;
2944;SDS011;1482;51.398;7.128;2024-02-04T11:20:34;5.77;;;5.27;;
2944;SDS011;1482;51.398;7.128;2024-02-04T11:26:22;7.60;;;6.43;;
2944;SDS011;1482;51.398;7.128;2024-02-04T11:28:48;6.30;;;5.27;;
2944;SDS011;1482;51.398;7.128;2024-02-04T11:31:14;7.67;;;6.97;;
2944;SDS011;1482;51.398;7.128;2024-02-04T11:33:42;8.07;;;7.27;;
2944;SDS011;1482;51.398;7.128;2024-02-04T11:36:11;8.20;;;6.60;;
2944;SDS011;1482;51.398;7.128;2024-02-04T11:38:39;8.17;;;6.27;;
2944;SDS011;1482;51.398;7.128;2024-02-04T11:41:05;6.87;;;6.27;;
2944;SDS011;1482;51.398;7.128;2024-02-04T11:43:34;5.87;;;5.37;;
2944;SDS011;1482;51.398;7.128;2024-02-04T11:46:02;6.97;;;4.90;;
2944;SDS011;1482;51.398;7.128;2024-02-04T11:48:29;4.37;;;4.07;;
2944;SDS011;1482;51.398;7.128;2024-02-04T11:50:57;4.77;;;4.37;;
2944;SDS011;1482;51.398;7.128;2024-02-04T11:53:24;4.30;;;3.90;;
2944;SDS011;1482;51.398;7.128;2024-02-04T11:55:53;3.93;;;3.63;;
2944;SDS011;1482;51.398;7.128;2024-02-04T11:58:19;5.80;;;5.07;;
2944;SDS011;1482;51.398;7.128;2024-02-04T12:00:45;4.60;;;4.17;;
2944;SDS011;1482;51.398;7.128;2024-02-04T12:03:11;5.27;;;4.77;;
2944;SDS011;1482;51.398;7.128;2024-02-04T12:05:37;4.40;;;4.00;;
2944;SDS011;1482;51.398;7.128;2024-02-04T12:08:06;5.23;;;4.67;;
2944;SDS011;1482;51.398;7.128;2024-02-04T12:10:33;6.17;;;5.57;;
2944;SDS011;1482;51.398;7.128;2024-02-04T12:13:03;6.37;;;5.83;;
2944;SDS011;1482;51.398;7.128;2024-02-04T12:15:31;7.53;;;5.77;;
2944;SDS011;1482;51.398;7.128;2024-02-04T12:18:05;6.77;;;5.43;;
2944;SDS011;1482;51.398;7.128;2024-02-04T12:20:31;8.60;;;5.60;;
2944;SDS011;1482;51.398;7.128;2024-02-04T12:22:57;7.37;;;5.50;;
2944;SDS011;1482;51.398;7.128;2024-02-04T12:25:23;8.80;;;5.40;;
2944;SDS011;1482;51.398;7.128;2024-02-04T12:27:51;9.17;;;6.67;;
2944;SDS011;1482;51.398;7.128;2024-02-04T12:30:17;6.60;;;5.57;;
2944;SDS011;1482;51.398;7.128;2024-02-04T12:32:43;6.23;;;5.33;;
2944;SDS011;1482;51.398;7.128;2024-02-04T12:35:13;8.80;;;6.00;;
2944;SDS011;1482;51.398;7.128;2024-02-04T12:37:48;11.63;;;6.20;;
2944;SDS011;1482;51.398;7.128;2024-02-04T12:40:21;13.50;;;5.90;;
2944;SDS011;1482;51.398;7.128;2024-02-04T12:42:51;8.60;;;6.40;;
2944;SDS011;1482;51.398;7.128;2024-02-04T12:45:24;10.27;;;7.83;;
2944;SDS011;1482;51.398;7.128;2024-02-04T12:47:50;14.10;;;11.13;;
2944;SDS011;1482;51.398;7.128;2024-02-04T12:50:17;11.30;;;9.73;;
2944;SDS011;1482;51.398;7.128;2024-02-04T12:52:44;9.80;;;7.80;;
2944;SDS011;1482;51.398;7.128;2024-02-04T12:55:20;17.03;;;9.60;;
2944;SDS011;1482;51.398;7.128;2024-02-04T12:57:48;7.80;;;7.00;;
2944;SDS011;1482;51.398;7.128;2024-02-04T13:00:17;21.00;;;6.90;;
2944;SDS011;1482;51.398;7.128;2024-02-04T13:02:43;6.40;;;5.40;;
2944;SDS011;1482;51.398;7.128;2024-02-04T13:05:08;7.03;;;6.33;;
2944;SDS011;1482;51.398;7.128;2024-02-04T13:07:34;6.20;;;5.20;;
2944;SDS011;1482;51.398;7.128;2024-02-04T13:10:00;6.10;;;5.50;;
2944;SDS011;1482;51.398;7.128;2024-02-04T13:12:25;9.33;;;7.50;;
2944;SDS011;1482;51.398;7.128;2024-02-04T13:14:51;11.57;;;5.63;;
2944;SDS011;1482;51.398;7.128;2024-02-04T13:17:16;10.07;;;5.77;;
2944;SDS011;1482;51.398;7.128;2024-02-04T13:19:42;9.93;;;6.10;;
2944;SDS011;1482;51.398;7.128;2024-02-04T13:22:08;8.33;;;5.93;;
2944;SDS011;1482;51.398;7.128;2024-02-04T13:24:39;6.07;;;5.30;;
2944;SDS011;1482;51.398;7.128;2024-02-04T13:27:04;7.43;;;4.90;;
2944;SDS011;1482;51.398;7.128;2024-02-04T13:29:31;7.83;;;5.37;;
2944;SDS011;1482;51.398;7.128;2024-02-04T13:31:57;6.60;;;5.07;;
2944;SDS011;1482;51.398;7.128;2024-02-04T13:34:22;5.30;;;4.80;;
2944;SDS011;1482;51.398;7.128;2024-02-04T13:36:48;5.83;;;5.37;;
2944;SDS011;1482;51.398;7.128;2024-02-04T13:39:13;5.10;;;4.70;;
2944;SDS011;1482;51.398;7.128;2024-02-04T13:41:39;5.87;;;4.90;;
2944;SDS011;1482;51.398;7.128;2024-02-04T13:44:05;5.03;;;4.63;;
2944;SDS011;1482;51.398;7.128;2024-02-04T13:46:31;6.23;;;4.63;;
2944;SDS011;1482;51.398;7.128;2024-02-04T13:48:57;5.57;;;4.97;;
2944;SDS011;1482;51.398;7.128;2024-02-04T13:51:23;6.47;;;5.83;;
2944;SDS011;1482;51.398;7.128;2024-02-04T13:53:48;11.33;;;8.83;;
2944;SDS011;1482;51.398;7.128;2024-02-04T13:56:14;11.00;;;8.63;;
2944;SDS011;1482;51.398;7.128;2024-02-04T13:58:39;8.43;;;7.70;;
2944;SDS011;1482;51.398;7.128;2024-02-04T14:01:05;9.63;;;8.73;;
2944;SDS011;1482;51.398;7.128;2024-02-04T14:03:31;11.37;;;9.23;;
2944;SDS011;1482;51.398;7.128;2024-02-04T14:05:57;10.60;;;8.80;;
2944;SDS011;1482;51.398;7.128;2024-02-04T14:08:22;16.43;;;11.20;;
2944;SDS011;1482;51.398;7.128;2024-02-04T14:10:48;10.40;;;9.30;;
2944;SDS011;1482;51.398;7.128;2024-02-04T14:13:13;17.40;;;15.60;;
2944;SDS011;1482;51.398;7.128;2024-02-04T14:15:39;16.30;;;13.40;;
2944;SDS011;1482;51.398;7.128;2024-02-04T14:18:04;24.13;;;15.50;;
2944;SDS011;1482;51.398;7.128;2024-02-04T14:20:30;15.80;;;13.93;;
2944;SDS011;1482;51.398;7.128;2024-02-04T14:22:56;17.30;;;15.40;;
2944;SDS011;1482;51.398;7.128;2024-02-04T14:25:22;12.73;;;11.43;;
2944;SDS011;1482;51.398;7.128;2024-02-04T14:27:49;13.07;;;10.87;;
2944;SDS011;1482;51.398;7.128;2024-02-04T14:30:15;10.67;;;9.57;;
2944;SDS011;1482;51.398;7.128;2024-02-04T14:32:40;9.70;;;8.70;;
2944;SDS011;1482;51.398;7.128;2024-02-04T14:35:07;10.23;;;9.07;;
2944;SDS011;1482;51.398;7.128;2024-02-04T14:37:34;9.80;;;8.67;;
2944;SDS011;1482;51.398;7.128;2024-02-04T14:40:00;10.93;;;7.20;;
2944;SDS011;1482;51.398;7.128;2024-02-04T14:42:26;9.90;;;7.97;;
2944;SDS011;1482;51.398;7.128;2024-02-04T14:44:52;11.50;;;8.17;;
2944;SDS011;1482;51.398;7.128;2024-02-04T14:47:17;10.90;;;8.77;;
2944;SDS011;1482;51.398;7.128;2024-02-04T14:49:43;11.60;;;10.40;;
2944;SDS011;1482;51.398;7.128;2024-02-04T14:52:09;19.70;;;14.40;;
2944;SDS011;1482;51.398;7.128;2024-02-04T14:54:35;17.07;;;12.10;;
2944;SDS011;1482;51.398;7.128;2024-02-04T14:57:01;14.30;;;9.70;;
2944;SDS011;1482;51.398;7.128;2024-02-04T14:59:26;10.33;;;9.23;;
2944;SDS011;1482;51.398;7.128;2024-02-04T15:01:52;16.10;;;11.77;;
2944;SDS011;1482;51.398;7.128;2024-02-04T15:04:17;15.10;;;9.27;;
2944;SDS011;1482;51.398;7.128;2024-02-04T15:06:43;10.53;;;8.90;;